sensor_id;sensor_type;location;lat;lon;timestamp;pressure;altitude;pressure_sealevel;temperature;humidity
35577;BME280;21680;52.400;16.920;2024-01-25T00:00:41;100219.95;;;6.19;83.90
35577;BME280;21680;52.400;16.920;2024-01-25T00:03:06;100218.23;;;6.18;83.89
35577;BME280;21680;52.400;16.920;2024-01-25T00:05:32;100217.94;;;6.16;84.13
35577;BME280;21680;52.400;16.920;2024-01-25T00:07:57;100234.98;;;6.15;84.05
35577;BME280;21680;52.400;16.920;2024-01-25T00:10:22;100199.75;;;6.13;84.02
35577;BME280;21680;52.400;16.920;2024-01-25T00:12:48;100215.04;;;6.12;84.11
35577;BME280;21680;52.400;16.920;2024-01-25T00:15:13;100211.86;;;6.12;84.18
35577;BME280;21680;52.400;16.920;2024-01-25T00:17:38;100227.02;;;6.10;84.16
35577;BME280;21680;52.400;16.920;2024-01-25T00:20:05;100231.88;;;6.07;84.27
35577;BME280;21680;52.400;16.920;2024-01-25T00:22:30;100226.95;;;6.06;84.39
35577;BME280;21680;52.400;16.920;2024-01-25T00:24:55;100236.70;;;6.06;84.33
35577;BME280;21680;52.400;16.920;2024-01-25T00:27:21;100256.30;;;6.09;84.49
35577;BME280;21680;52.400;16.920;2024-01-25T00:29:46;100231.80;;;6.09;84.41
35577;BME280;21680;52.400;16.920;2024-01-25T00:32:11;100227.88;;;6.10;84.58
35577;BME280;21680;52.400;16.920;2024-01-25T00:34:37;100231.41;;;6.10;84.56
35577;BME280;21680;52.400;16.920;2024-01-25T00:37:03;100222.00;;;6.11;84.60
35577;BME280;21680;52.400;16.920;2024-01-25T00:39:28;100226.96;;;6.11;84.73
35577;BME280;21680;52.400;16.920;2024-01-25T00:42:04;100223.77;;;6.11;84.87
35577;BME280;21680;52.400;16.920;2024-01-25T00:44:31;100235.23;;;6.08;84.76
35577;BME280;21680;52.400;16.920;2024-01-25T00:46:57;100226.39;;;6.07;84.87
35577;BME280;21680;52.400;16.920;2024-01-25T00:49:22;100244.88;;;6.06;84.95
35577;BME280;21680;52.400;16.920;2024-01-25T00:51:48;100251.02;;;6.02;84.86
35577;BME280;21680;52.400;16.920;2024-01-25T00:54:15;100250.88;;;6.01;84.93
35577;BME280;21680;52.400;16.920;2024-01-25T00:56:41;100262.30;;;5.99;85.00
35577;BME280;21680;52.400;16.920;2024-01-25T00:59:07;100281.01;;;5.96;85.19
35577;BME280;21680;52.400;16.920;2024-01-25T01:01:32;100270.05;;;5.88;85.25
35577;BME280;21680;52.400;16.920;2024-01-25T01:03:59;100247.36;;;5.76;85.11
35577;BME280;21680;52.400;16.920;2024-01-25T01:06:25;100256.14;;;5.66;85.21
35577;BME280;21680;52.400;16.920;2024-01-25T01:08:51;100271.18;;;5.62;85.47
35577;BME280;21680;52.400;16.920;2024-01-25T01:11:18;100269.61;;;5.61;85.52
35577;BME280;21680;52.400;16.920;2024-01-25T01:13:43;100284.48;;;5.62;85.56
35577;BME280;21680;52.400;16.920;2024-01-25T01:16:09;100279.84;;;5.62;85.70
35577;BME280;21680;52.400;16.920;2024-01-25T01:18:34;100301.66;;;5.61;85.81
35577;BME280;21680;52.400;16.920;2024-01-25T01:20:59;100281.86;;;5.54;85.77
35577;BME280;21680;52.400;16.920;2024-01-25T01:23:25;100296.04;;;5.48;85.73
35577;BME280;21680;52.400;16.920;2024-01-25T01:25:50;100290.73;;;5.34;85.83
35577;BME280;21680;52.400;16.920;2024-01-25T01:28:16;100282.05;;;5.16;85.95
35577;BME280;21680;52.400;16.920;2024-01-25T01:30:41;100286.23;;;5.06;86.24
35577;BME280;21680;52.400;16.920;2024-01-25T01:33:10;100299.02;;;4.98;86.43
35577;BME280;21680;52.400;16.920;2024-01-25T01:35:35;100283.89;;;4.87;86.89
35577;BME280;21680;52.400;16.920;2024-01-25T01:38:01;100263.73;;;4.79;86.84
35577;BME280;21680;52.400;16.920;2024-01-25T01:40:27;100263.62;;;4.77;86.88
35577;BME280;21680;52.400;16.920;2024-01-25T01:42:58;100286.44;;;4.77;87.09
35577;BME280;21680;52.400;16.920;2024-01-25T01:45:23;100271.63;;;4.75;87.21
35577;BME280;21680;52.400;16.920;2024-01-25T01:47:49;100284.78;;;4.73;87.42
35577;BME280;21680;52.400;16.920;2024-01-25T01:50:14;100271.71;;;4.72;87.53
35577;BME280;21680;52.400;16.920;2024-01-25T01:52:40;100283.92;;;4.72;87.76
35577;BME280;21680;52.400;16.920;2024-01-25T01:55:06;100294.33;;;4.74;87.83
35577;BME280;21680;52.400;16.920;2024-01-25T01:57:31;100294.79;;;4.76;88.06
35577;BME280;21680;52.400;16.920;2024-01-25T02:00:00;100275.27;;;4.78;88.40
35577;BME280;21680;52.400;16.920;2024-01-25T02:02:26;100286.91;;;4.80;88.23
35577;BME280;21680;52.400;16.920;2024-01-25T02:04:52;100286.50;;;4.82;88.36
35577;BME280;21680;52.400;16.920;2024-01-25T02:07:17;100287.52;;;4.84;88.63
35577;BME280;21680;52.400;16.920;2024-01-25T02:09:42;100272.91;;;4.87;88.63
35577;BME280;21680;52.400;16.920;2024-01-25T02:12:07;100275.69;;;4.90;88.67
35577;BME280;21680;52.400;16.920;2024-01-25T02:14:35;100282.17;;;4.92;88.63
35577;BME280;21680;52.400;16.920;2024-01-25T02:17:00;100304.17;;;4.97;88.89
35577;BME280;21680;52.400;16.920;2024-01-25T02:19:25;100286.84;;;5.03;89.02
35577;BME280;21680;52.400;16.920;2024-01-25T02:21:53;100287.03;;;5.09;89.14
35577;BME280;21680;52.400;16.920;2024-01-25T02:24:18;100288.18;;;5.12;89.12
35577;BME280;21680;52.400;16.920;2024-01-25T02:26:44;100302.42;;;5.16;89.35
35577;BME280;21680;52.400;16.920;2024-01-25T02:29:10;100281.93;;;5.20;89.18
35577;BME280;21680;52.400;16.920;2024-01-25T02:31:35;100267.77;;;5.20;89.34
35577;BME280;21680;52.400;16.920;2024-01-25T02:34:00;100270.90;;;5.21;89.24
35577;BME280;21680;52.400;16.920;2024-01-25T02:36:26;100284.48;;;5.24;89.24
35577;BME280;21680;52.400;16.920;2024-01-25T02:38:51;100271.85;;;5.25;89.41
35577;BME280;21680;52.400;16.920;2024-01-25T02:41:16;100273.93;;;5.27;89.55
35577;BME280;21680;52.400;16.920;2024-01-25T02:43:41;100260.66;;;5.33;89.65
35577;BME280;21680;52.400;16.920;2024-01-25T02:46:08;100268.11;;;5.39;89.50
35577;BME280;21680;52.400;16.920;2024-01-25T02:48:34;100263.14;;;5.45;89.50
35577;BME280;21680;52.400;16.920;2024-01-25T02:51:00;100260.87;;;5.50;89.58
35577;BME280;21680;52.400;16.920;2024-01-25T02:53:25;100250.66;;;5.54;89.70
35577;BME280;21680;52.400;16.920;2024-01-25T02:55:51;100251.78;;;5.58;89.64
35577;BME280;21680;52.400;16.920;2024-01-25T02:58:16;100250.88;;;5.65;89.47
35577;BME280;21680;52.400;16.920;2024-01-25T03:00:41;100246.34;;;5.68;89.46
35577;BME280;21680;52.400;16.920;2024-01-25T03:03:07;100258.13;;;5.71;89.50
35577;BME280;21680;52.400;16.920;2024-01-25T03:05:32;100259.31;;;5.73;89.58
35577;BME280;21680;52.400;16.920;2024-01-25T03:07:59;100263.48;;;5.76;89.59
35577;BME280;21680;52.400;16.920;2024-01-25T03:10:25;100264.98;;;5.79;89.51
35577;BME280;21680;52.400;16.920;2024-01-25T03:12:50;100258.85;;;5.83;89.23
35577;BME280;21680;52.400;16.920;2024-01-25T03:15:15;100271.52;;;5.86;89.24
35577;BME280;21680;52.400;16.920;2024-01-25T03:17:40;100260.29;;;5.89;89.37
35577;BME280;21680;52.400;16.920;2024-01-25T03:20:06;100262.73;;;5.91;89.24
35577;BME280;21680;52.400;16.920;2024-01-25T03:22:33;100266.70;;;5.94;89.14
35577;BME280;21680;52.400;16.920;2024-01-25T03:24:58;100278.33;;;5.97;89.19
35577;BME280;21680;52.400;16.920;2024-01-25T03:27:25;100277.16;;;6.00;89.08
35577;BME280;21680;52.400;16.920;2024-01-25T03:29:50;100271.34;;;5.99;88.91
35577;BME280;21680;52.400;16.920;2024-01-25T03:32:15;100281.02;;;5.96;88.72
35577;BME280;21680;52.400;16.920;2024-01-25T03:34:40;100291.39;;;5.93;88.65
35577;BME280;21680;52.400;16.920;2024-01-25T03:37:06;100270.52;;;5.91;88.83
35577;BME280;21680;52.400;16.920;2024-01-25T03:39:31;100280.66;;;5.90;88.64
35577;BME280;21680;52.400;16.920;2024-01-25T03:41:56;100269.31;;;5.90;88.55
35577;BME280;21680;52.400;16.920;2024-01-25T03:44:21;100291.12;;;5.90;88.72
35577;BME280;21680;52.400;16.920;2024-01-25T03:46:46;100275.54;;;5.88;88.58
35577;BME280;21680;52.400;16.920;2024-01-25T03:49:12;100278.61;;;5.85;88.51
35577;BME280;21680;52.400;16.920;2024-01-25T03:51:37;100283.94;;;5.85;88.47
35577;BME280;21680;52.400;16.920;2024-01-25T03:54:02;100286.56;;;5.87;88.54
35577;BME280;21680;52.400;16.920;2024-01-25T03:56:28;100285.14;;;5.87;88.36
35577;BME280;21680;52.400;16.920;2024-01-25T03:58:53;100262.09;;;5.87;88.40
35577;BME280;21680;52.400;16.920;2024-01-25T04:01:19;100274.55;;;5.85;88.34
35577;BME280;21680;52.400;16.920;2024-01-25T04:03:44;100274.45;;;5.83;88.34
35577;BME280;21680;52.400;16.920;2024-01-25T04:06:09;100271.19;;;5.79;88.14
35577;BME280;21680;52.400;16.920;2024-01-25T04:08:34;100271.01;;;5.74;88.04
35577;BME280;21680;52.400;16.920;2024-01-25T04:11:00;100282.48;;;5.69;88.01
35577;BME280;21680;52.400;16.920;2024-01-25T04:13:25;100274.12;;;5.64;88.15
35577;BME280;21680;52.400;16.920;2024-01-25T04:15:50;100276.70;;;5.61;88.09
35577;BME280;21680;52.400;16.920;2024-01-25T04:18:16;100268.60;;;5.59;88.23
35577;BME280;21680;52.400;16.920;2024-01-25T04:20:42;100291.65;;;5.59;88.17
35577;BME280;21680;52.400;16.920;2024-01-25T04:23:08;100272.02;;;5.57;88.24
35577;BME280;21680;52.400;16.920;2024-01-25T04:25:33;100300.95;;;5.55;88.13
35577;BME280;21680;52.400;16.920;2024-01-25T04:27:58;100295.98;;;5.55;88.19
35577;BME280;21680;52.400;16.920;2024-01-25T04:30:25;100290.15;;;5.55;88.15
35577;BME280;21680;52.400;16.920;2024-01-25T04:32:50;100286.98;;;5.54;88.19
35577;BME280;21680;52.400;16.920;2024-01-25T04:35:15;100293.74;;;5.53;88.30
35577;BME280;21680;52.400;16.920;2024-01-25T04:37:40;100293.80;;;5.51;88.27
35577;BME280;21680;52.400;16.920;2024-01-25T04:40:07;100295.90;;;5.52;88.41
35577;BME280;21680;52.400;16.920;2024-01-25T04:42:37;100301.04;;;5.52;88.50
35577;BME280;21680;52.400;16.920;2024-01-25T04:45:02;100300.34;;;5.51;88.49
35577;BME280;21680;52.400;16.920;2024-01-25T04:47:28;100295.03;;;5.52;88.46
35577;BME280;21680;52.400;16.920;2024-01-25T04:49:53;100306.88;;;5.52;88.65
35577;BME280;21680;52.400;16.920;2024-01-25T04:52:18;100312.52;;;5.53;88.57
35577;BME280;21680;52.400;16.920;2024-01-25T04:54:43;100318.91;;;5.53;88.52
35577;BME280;21680;52.400;16.920;2024-01-25T04:57:09;100306.52;;;5.52;88.43
35577;BME280;21680;52.400;16.920;2024-01-25T04:59:35;100309.76;;;5.51;88.55
35577;BME280;21680;52.400;16.920;2024-01-25T05:02:01;100320.09;;;5.49;88.59
35577;BME280;21680;52.400;16.920;2024-01-25T05:04:28;100318.30;;;5.50;88.71
35577;BME280;21680;52.400;16.920;2024-01-25T05:06:54;100306.69;;;5.47;88.71
35577;BME280;21680;52.400;16.920;2024-01-25T05:09:20;100318.23;;;5.45;88.76
35577;BME280;21680;52.400;16.920;2024-01-25T05:11:46;100312.42;;;5.44;88.77
35577;BME280;21680;52.400;16.920;2024-01-25T05:14:11;100336.70;;;5.45;88.83
35577;BME280;21680;52.400;16.920;2024-01-25T05:16:36;100332.50;;;5.42;88.80
35577;BME280;21680;52.400;16.920;2024-01-25T05:19:02;100322.63;;;5.41;88.92
35577;BME280;21680;52.400;16.920;2024-01-25T05:21:27;100331.34;;;5.39;89.00
35577;BME280;21680;52.400;16.920;2024-01-25T05:23:53;100312.95;;;5.38;88.91
35577;BME280;21680;52.400;16.920;2024-01-25T05:26:18;100323.95;;;5.38;89.00
35577;BME280;21680;52.400;16.920;2024-01-25T05:28:44;100321.13;;;5.37;89.10
35577;BME280;21680;52.400;16.920;2024-01-25T05:31:10;100325.91;;;5.37;89.17
35577;BME280;21680;52.400;16.920;2024-01-25T05:33:40;100325.41;;;5.36;89.07
35577;BME280;21680;52.400;16.920;2024-01-25T05:36:07;100336.77;;;5.35;89.18
35577;BME280;21680;52.400;16.920;2024-01-25T05:38:32;100328.67;;;5.33;89.05
35577;BME280;21680;52.400;16.920;2024-01-25T05:40:58;100326.39;;;5.33;89.24
35577;BME280;21680;52.400;16.920;2024-01-25T05:43:23;100333.13;;;5.33;89.27
35577;BME280;21680;52.400;16.920;2024-01-25T05:45:49;100338.97;;;5.33;89.25
35577;BME280;21680;52.400;16.920;2024-01-25T05:48:15;100336.15;;;5.32;89.27
35577;BME280;21680;52.400;16.920;2024-01-25T05:50:40;100341.44;;;5.33;89.45
35577;BME280;21680;52.400;16.920;2024-01-25T05:53:05;100349.57;;;5.34;89.50
35577;BME280;21680;52.400;16.920;2024-01-25T05:55:31;100346.41;;;5.33;89.44
35577;BME280;21680;52.400;16.920;2024-01-25T05:57:56;100342.13;;;5.34;89.55
35577;BME280;21680;52.400;16.920;2024-01-25T06:00:21;100353.98;;;5.35;89.40
35577;BME280;21680;52.400;16.920;2024-01-25T06:02:47;100348.13;;;5.35;89.59
35577;BME280;21680;52.400;16.920;2024-01-25T06:05:12;100351.81;;;5.36;89.62
35577;BME280;21680;52.400;16.920;2024-01-25T06:07:38;100348.65;;;5.35;89.58
35577;BME280;21680;52.400;16.920;2024-01-25T06:10:03;100350.03;;;5.37;89.46
35577;BME280;21680;52.400;16.920;2024-01-25T06:12:29;100378.86;;;5.38;89.73
35577;BME280;21680;52.400;16.920;2024-01-25T06:14:54;100378.31;;;5.39;89.62
35577;BME280;21680;52.400;16.920;2024-01-25T06:17:20;100380.95;;;5.40;89.63
35577;BME280;21680;52.400;16.920;2024-01-25T06:19:45;100379.14;;;5.41;89.62
35577;BME280;21680;52.400;16.920;2024-01-25T06:22:10;100393.83;;;5.41;89.63
35577;BME280;21680;52.400;16.920;2024-01-25T06:24:38;100392.79;;;5.41;89.61
35577;BME280;21680;52.400;16.920;2024-01-25T06:27:05;100382.52;;;5.41;89.74
35577;BME280;21680;52.400;16.920;2024-01-25T06:29:30;100391.52;;;5.42;89.64
35577;BME280;21680;52.400;16.920;2024-01-25T06:31:55;100392.58;;;5.42;89.81
35577;BME280;21680;52.400;16.920;2024-01-25T06:34:21;100392.05;;;5.42;89.73
35577;BME280;21680;52.400;16.920;2024-01-25T06:36:46;100417.02;;;5.42;89.77
35577;BME280;21680;52.400;16.920;2024-01-25T06:39:12;100399.51;;;5.42;89.85
35577;BME280;21680;52.400;16.920;2024-01-25T06:41:38;100391.17;;;5.42;89.84
35577;BME280;21680;52.400;16.920;2024-01-25T06:44:03;100404.45;;;5.42;89.80
35577;BME280;21680;52.400;16.920;2024-01-25T06:46:28;100413.02;;;5.40;89.72
35577;BME280;21680;52.400;16.920;2024-01-25T06:48:54;100415.89;;;5.38;89.82
35577;BME280;21680;52.400;16.920;2024-01-25T06:51:19;100415.53;;;5.39;89.89
35577;BME280;21680;52.400;16.920;2024-01-25T06:53:44;100431.64;;;5.39;89.94
35577;BME280;21680;52.400;16.920;2024-01-25T06:56:10;100430.23;;;5.38;89.74
35577;BME280;21680;52.400;16.920;2024-01-25T06:58:36;100417.86;;;5.38;89.91
35577;BME280;21680;52.400;16.920;2024-01-25T07:01:01;100431.52;;;5.38;89.95
35577;BME280;21680;52.400;16.920;2024-01-25T07:03:27;100443.79;;;5.35;89.91
35577;BME280;21680;52.400;16.920;2024-01-25T07:05:52;100422.60;;;5.32;89.91
35577;BME280;21680;52.400;16.920;2024-01-25T07:08:17;100428.81;;;5.32;89.89
35577;BME280;21680;52.400;16.920;2024-01-25T07:10:44;100446.54;;;5.32;90.06
35577;BME280;21680;52.400;16.920;2024-01-25T07:13:10;100447.02;;;5.33;89.96
35577;BME280;21680;52.400;16.920;2024-01-25T07:15:35;100454.80;;;5.34;90.12
35577;BME280;21680;52.400;16.920;2024-01-25T07:18:01;100457.07;;;5.35;89.99
35577;BME280;21680;52.400;16.920;2024-01-25T07:20:27;100472.99;;;5.36;90.09
35577;BME280;21680;52.400;16.920;2024-01-25T07:22:52;100469.92;;;5.38;90.10
35577;BME280;21680;52.400;16.920;2024-01-25T07:25:17;100466.91;;;5.38;90.10
35577;BME280;21680;52.400;16.920;2024-01-25T07:27:46;100464.03;;;5.40;90.17
35577;BME280;21680;52.400;16.920;2024-01-25T07:30:15;100470.56;;;5.41;90.06
35577;BME280;21680;52.400;16.920;2024-01-25T07:32:40;100471.74;;;5.44;90.12
35577;BME280;21680;52.400;16.920;2024-01-25T07:35:08;100467.96;;;5.46;90.12
35577;BME280;21680;52.400;16.920;2024-01-25T07:37:35;100480.52;;;5.47;90.11
35577;BME280;21680;52.400;16.920;2024-01-25T07:40:01;100488.63;;;5.49;90.17
35577;BME280;21680;52.400;16.920;2024-01-25T07:42:26;100471.41;;;5.50;90.12
35577;BME280;21680;52.400;16.920;2024-01-25T07:44:51;100495.27;;;5.52;90.17
35577;BME280;21680;52.400;16.920;2024-01-25T07:47:16;100488.11;;;5.55;90.13
35577;BME280;21680;52.400;16.920;2024-01-25T07:49:42;100487.20;;;5.56;90.19
35577;BME280;21680;52.400;16.920;2024-01-25T07:52:07;100485.19;;;5.59;90.24
35577;BME280;21680;52.400;16.920;2024-01-25T07:54:32;100493.14;;;5.60;90.10
35577;BME280;21680;52.400;16.920;2024-01-25T07:56:58;100512.95;;;5.61;90.04
35577;BME280;21680;52.400;16.920;2024-01-25T07:59:23;100499.96;;;5.63;90.09
35577;BME280;21680;52.400;16.920;2024-01-25T08:01:48;100496.92;;;5.64;90.07
35577;BME280;21680;52.400;16.920;2024-01-25T08:04:13;100490.02;;;5.65;90.00
35577;BME280;21680;52.400;16.920;2024-01-25T08:06:39;100499.39;;;5.65;90.01
35577;BME280;21680;52.400;16.920;2024-01-25T08:09:04;100496.54;;;5.65;89.98
35577;BME280;21680;52.400;16.920;2024-01-25T08:11:29;100513.84;;;5.68;90.10
35577;BME280;21680;52.400;16.920;2024-01-25T08:13:55;100491.77;;;5.72;90.01
35577;BME280;21680;52.400;16.920;2024-01-25T08:16:20;100505.85;;;5.76;89.95
35577;BME280;21680;52.400;16.920;2024-01-25T08:18:49;100506.13;;;5.78;89.70
35577;BME280;21680;52.400;16.920;2024-01-25T08:21:14;100511.90;;;5.81;89.83
35577;BME280;21680;52.400;16.920;2024-01-25T08:23:40;100525.81;;;5.85;89.56
35577;BME280;21680;52.400;16.920;2024-01-25T08:26:05;100526.30;;;5.87;89.73
35577;BME280;21680;52.400;16.920;2024-01-25T08:28:34;100537.41;;;5.91;89.58
35577;BME280;21680;52.400;16.920;2024-01-25T08:30:59;100529.89;;;5.93;89.49
35577;BME280;21680;52.400;16.920;2024-01-25T08:33:25;100526.27;;;5.96;89.55
35577;BME280;21680;52.400;16.920;2024-01-25T08:35:50;100526.70;;;5.99;89.52
35577;BME280;21680;52.400;16.920;2024-01-25T08:38:16;100550.39;;;6.03;89.43
35577;BME280;21680;52.400;16.920;2024-01-25T08:40:41;100542.72;;;6.04;89.34
35577;BME280;21680;52.400;16.920;2024-01-25T08:43:07;100538.63;;;6.05;89.23
35577;BME280;21680;52.400;16.920;2024-01-25T08:45:32;100532.36;;;6.07;89.21
35577;BME280;21680;52.400;16.920;2024-01-25T08:47:57;100561.58;;;6.09;89.20
35577;BME280;21680;52.400;16.920;2024-01-25T08:50:23;100562.11;;;6.09;89.19
35577;BME280;21680;52.400;16.920;2024-01-25T08:52:48;100563.17;;;6.09;89.06
35577;BME280;21680;52.400;16.920;2024-01-25T08:55:14;100578.02;;;6.11;88.92
35577;BME280;21680;52.400;16.920;2024-01-25T08:57:39;100580.86;;;6.11;88.76
35577;BME280;21680;52.400;16.920;2024-01-25T09:00:06;100567.20;;;6.11;88.66
35577;BME280;21680;52.400;16.920;2024-01-25T09:02:38;100587.23;;;6.12;88.74
35577;BME280;21680;52.400;16.920;2024-01-25T09:05:05;100591.67;;;6.11;88.64
35577;BME280;21680;52.400;16.920;2024-01-25T09:07:30;100603.38;;;6.12;88.54
35577;BME280;21680;52.400;16.920;2024-01-25T09:09:56;100602.84;;;6.12;88.67
35577;BME280;21680;52.400;16.920;2024-01-25T09:12:21;100601.01;;;6.14;88.53
35577;BME280;21680;52.400;16.920;2024-01-25T09:14:46;100601.32;;;6.16;88.48
35577;BME280;21680;52.400;16.920;2024-01-25T09:17:11;100608.71;;;6.18;88.45
35577;BME280;21680;52.400;16.920;2024-01-25T09:19:38;100611.70;;;6.18;88.35
35577;BME280;21680;52.400;16.920;2024-01-25T09:22:04;100627.80;;;6.21;88.31
35577;BME280;21680;52.400;16.920;2024-01-25T09:24:30;100610.23;;;6.21;88.28
35577;BME280;21680;52.400;16.920;2024-01-25T09:27:02;100615.85;;;6.23;88.23
35577;BME280;21680;52.400;16.920;2024-01-25T09:29:27;100629.64;;;6.25;88.24
35577;BME280;21680;52.400;16.920;2024-01-25T09:31:53;100626.63;;;6.25;88.13
35577;BME280;21680;52.400;16.920;2024-01-25T09:34:19;100623.39;;;6.27;88.11
35577;BME280;21680;52.400;16.920;2024-01-25T09:36:45;100635.77;;;6.29;88.15
35577;BME280;21680;52.400;16.920;2024-01-25T09:39:10;100650.27;;;6.31;87.98
35577;BME280;21680;52.400;16.920;2024-01-25T09:41:35;100649.71;;;6.31;88.03
35577;BME280;21680;52.400;16.920;2024-01-25T09:44:01;100644.41;;;6.31;87.82
35577;BME280;21680;52.400;16.920;2024-01-25T09:46:26;100654.52;;;6.31;87.83
35577;BME280;21680;52.400;16.920;2024-01-25T09:48:52;100654.29;;;6.33;87.87
35577;BME280;21680;52.400;16.920;2024-01-25T09:51:17;100661.71;;;6.34;87.82
35577;BME280;21680;52.400;16.920;2024-01-25T09:53:44;100666.62;;;6.36;87.77
35577;BME280;21680;52.400;16.920;2024-01-25T09:56:12;100669.23;;;6.38;87.68
35577;BME280;21680;52.400;16.920;2024-01-25T09:58:42;100682.89;;;6.39;87.57
35577;BME280;21680;52.400;16.920;2024-01-25T10:01:10;100670.81;;;6.39;87.50
35577;BME280;21680;52.400;16.920;2024-01-25T10:03:36;100695.77;;;6.41;87.43
35577;BME280;21680;52.400;16.920;2024-01-25T10:06:02;100693.15;;;6.40;87.34
35577;BME280;21680;52.400;16.920;2024-01-25T10:08:29;100682.63;;;6.41;87.41
35577;BME280;21680;52.400;16.920;2024-01-25T10:10:54;100693.05;;;6.44;87.35
35577;BME280;21680;52.400;16.920;2024-01-25T10:13:19;100683.44;;;6.45;87.30
35577;BME280;21680;52.400;16.920;2024-01-25T10:15:45;100683.42;;;6.45;87.45
35577;BME280;21680;52.400;16.920;2024-01-25T10:18:13;100687.48;;;6.46;87.24
35577;BME280;21680;52.400;16.920;2024-01-25T10:20:39;100706.64;;;6.46;87.33
35577;BME280;21680;52.400;16.920;2024-01-25T10:23:07;100694.91;;;6.47;87.21
35577;BME280;21680;52.400;16.920;2024-01-25T10:25:36;100687.27;;;6.48;87.26
35577;BME280;21680;52.400;16.920;2024-01-25T10:28:06;100695.75;;;6.49;87.13
35577;BME280;21680;52.400;16.920;2024-01-25T10:30:32;100693.25;;;6.49;87.14
35577;BME280;21680;52.400;16.920;2024-01-25T10:32:58;100681.86;;;6.51;87.20
35577;BME280;21680;52.400;16.920;2024-01-25T10:35:25;100700.06;;;6.54;87.18
35577;BME280;21680;52.400;16.920;2024-01-25T10:37:51;100691.57;;;6.53;87.08
35577;BME280;21680;52.400;16.920;2024-01-25T10:40:18;100691.21;;;6.53;86.92
35577;BME280;21680;52.400;16.920;2024-01-25T10:42:44;100706.08;;;6.55;86.90
35577;BME280;21680;52.400;16.920;2024-01-25T10:45:10;100717.27;;;6.54;86.85
35577;BME280;21680;52.400;16.920;2024-01-25T10:47:36;100720.02;;;6.51;86.78
35577;BME280;21680;52.400;16.920;2024-01-25T10:50:03;100711.17;;;6.50;86.73
35577;BME280;21680;52.400;16.920;2024-01-25T10:52:30;100718.63;;;6.50;86.80
35577;BME280;21680;52.400;16.920;2024-01-25T10:54:57;100721.15;;;6.48;86.76
35577;BME280;21680;52.400;16.920;2024-01-25T10:57:23;100728.85;;;6.46;86.77
35577;BME280;21680;52.400;16.920;2024-01-25T10:59:48;100726.16;;;6.47;86.67
35577;BME280;21680;52.400;16.920;2024-01-25T11:02:14;100732.20;;;6.47;86.62
35577;BME280;21680;52.400;16.920;2024-01-25T11:04:39;100727.61;;;6.45;86.45
35577;BME280;21680;52.400;16.920;2024-01-25T11:07:07;100723.03;;;6.44;86.59
35577;BME280;21680;52.400;16.920;2024-01-25T11:09:37;100723.55;;;6.45;86.68
35577;BME280;21680;52.400;16.920;2024-01-25T11:12:11;100723.91;;;6.45;86.56
35577;BME280;21680;52.400;16.920;2024-01-25T11:14:38;100733.14;;;6.44;86.48
35577;BME280;21680;52.400;16.920;2024-01-25T11:17:20;100734.21;;;6.44;86.46
35577;BME280;21680;52.400;16.920;2024-01-25T11:19:48;100734.05;;;6.44;86.46
35577;BME280;21680;52.400;16.920;2024-01-25T11:22:14;100721.80;;;6.44;86.45
35577;BME280;21680;52.400;16.920;2024-01-25T11:24:41;100728.69;;;6.45;86.44
35577;BME280;21680;52.400;16.920;2024-01-25T11:27:09;100738.63;;;6.45;86.35
35577;BME280;21680;52.400;16.920;2024-01-25T11:29:35;100743.44;;;6.44;86.28
35577;BME280;21680;52.400;16.920;2024-01-25T11:32:04;100754.95;;;6.45;86.26
35577;BME280;21680;52.400;16.920;2024-01-25T11:34:32;100749.48;;;6.44;86.31
35577;BME280;21680;52.400;16.920;2024-01-25T11:36:57;100754.63;;;6.44;86.35
35577;BME280;21680;52.400;16.920;2024-01-25T11:39:23;100753.02;;;6.45;86.39
35577;BME280;21680;52.400;16.920;2024-01-25T11:41:50;100756.00;;;6.46;86.32
35577;BME280;21680;52.400;16.920;2024-01-25T11:44:16;100764.54;;;6.45;86.14
35577;BME280;21680;52.400;16.920;2024-01-25T11:46:42;100759.41;;;6.44;86.23
35577;BME280;21680;52.400;16.920;2024-01-25T11:49:07;100764.17;;;6.45;86.17
35577;BME280;21680;52.400;16.920;2024-01-25T11:51:32;100762.76;;;6.46;86.21
35577;BME280;21680;52.400;16.920;2024-01-25T11:53:58;100764.35;;;6.46;86.01
35577;BME280;21680;52.400;16.920;2024-01-25T11:56:29;100765.56;;;6.47;86.12
35577;BME280;21680;52.400;16.920;2024-01-25T11:58:55;100772.27;;;6.48;86.02
35577;BME280;21680;52.400;16.920;2024-01-25T12:01:23;100773.70;;;6.48;86.07
35577;BME280;21680;52.400;16.920;2024-01-25T12:03:49;100780.45;;;6.48;85.99
35577;BME280;21680;52.400;16.920;2024-01-25T12:06:14;100779.55;;;6.48;86.14
35577;BME280;21680;52.400;16.920;2024-01-25T12:08:40;100794.48;;;6.48;85.96
35577;BME280;21680;52.400;16.920;2024-01-25T12:11:07;100789.05;;;6.45;86.06
35577;BME280;21680;52.400;16.920;2024-01-25T12:13:40;100791.99;;;6.40;86.09
35577;BME280;21680;52.400;16.920;2024-01-25T12:16:07;100797.52;;;6.39;86.13
35577;BME280;21680;52.400;16.920;2024-01-25T12:18:33;100800.02;;;6.39;86.09
35577;BME280;21680;52.400;16.920;2024-01-25T12:21:02;100795.45;;;6.37;86.10
35577;BME280;21680;52.400;16.920;2024-01-25T12:23:35;100796.50;;;6.38;86.29
35577;BME280;21680;52.400;16.920;2024-01-25T12:26:02;100798.56;;;6.40;86.30
35577;BME280;21680;52.400;16.920;2024-01-25T12:28:29;100811.12;;;6.42;86.24
35577;BME280;21680;52.400;16.920;2024-01-25T12:30:56;100810.11;;;6.40;86.09
35577;BME280;21680;52.400;16.920;2024-01-25T12:33:22;100813.36;;;6.38;86.14
35577;BME280;21680;52.400;16.920;2024-01-25T12:35:47;100815.15;;;6.37;86.31
35577;BME280;21680;52.400;16.920;2024-01-25T12:38:13;100822.30;;;6.34;86.17
35577;BME280;21680;52.400;16.920;2024-01-25T12:40:38;100821.16;;;6.31;86.20
35577;BME280;21680;52.400;16.920;2024-01-25T12:43:04;100823.98;;;6.31;86.12